Chetumal International Airport
MMCM : now visible

Airfield :











YOU CAN JOIN US ON...

 
LOGIN :

Register | Disclaimer

   EN    FR    IT 

 









Legend :    VFR   Marginal VFR   IFR   Intensive IFR   Very Intensive IFR
Visi :
Ceiling :
>= 8 km
>= 3000ft
5 to 8 km
1000 to 3000 ft
1500m to 5 km
500 to 1000 ft
800 to 1500m
200 to 500 ft
< 800m
< 200 ft
Symbols :   Thunderstorms  Fog  Heavy snow  Heavy precipitations  Wind > 20 kt






- Airport Elevation : 39 ft
- IATA code : CTM


MMCM - Chetumal International

CURRENT METAR :
  • 232243Z 00000KT 7SM BKN015 26/24 A2982 RMK 8/400

EXPIRED METARs :
  • 232145Z 00000KT 7SM BKN015CB 26/26 A2982 RMK 8/300
  • 232048Z 00000KT 7SM BKN015CB 26/25 A2983 RMK SLP103 5//// 900 8/300

TAF AMD TAF MMCM
Valid from the 23 at 21:00 until the 24 at 18:00 UTC


232123Z 2321/2418 07010KT P6SM BKN015CB
TEMPO 2323/2403 VC RA
FM240300 07005KT P6SM BKN020
TEMPO 2410/2414 3SM -RA BKN010 OVC020
FM241500 10010KT 6SM HZ BKN015



MET'MAP, your aeronautical weather chart ! - Copyright ORBIFLY December 2007 - Disclaimer

ORBIFLY MET'MAP TEAM :

Programming & Development : Alexandra Zaïnal
Concept & Development : Baudouin d'Aumeries
Co-Development & Prog : Marc-Olivier Méhu
Technical & hardware support : Manuel Goepfert

Contact : metmap@orbifly.com




SOURCES & CREDITS :

   NOAA       Earth
Advisory